Historyczne dane pomiarowe

Dodano dane terminowe – wersja testowa.

Dane z okresu 1951-2019

Wersja bazy: 1.34 [2019-03-16, lista zmian], aktualizacja planowana na 2019-04-15

Dane meteo z obszaru Polski uzyskane na podstawie danych udostępnionych przez Instytut Meteorologii i Gospodarki Wodnej – Państwowy Instytut Badawczy.

 

Wybierz Datę:    

       

TemperaturaWilgotnośćWiatrCiśnienieOpadyŚniegCzas trwania zjawisk
 Stacja t tx tn tng RH VA  wxwx mslp ppp RRR   cm mm wxwxwxwxwxwxwx
1964-05-15 10.6 13.8 6.1- 68.0- 7.3 5.0---- 0.0------------
1964-05-16 11.2 15.9 6.4- 67.8- 1.3 3.0---- 0.0------------
1964-05-17 13.5 17.5 3.1- 62.8- 7.0 2.0---- 0.0------------
1964-05-18 13.7 19.4 10.1- 72.3- 5.3 2.7---- 0.0------------
1964-05-19 12.1 18.4 3.8- 50.0- 4.0 3.3---- 0.0------------
1964-05-20 13.5 19.9 8.5- 65.8- 5.0 2.7---- 0.0------------
1964-05-21 12.0 15.7 9.5- 76.5- 6.3 3.0---- 0.0------------
1964-05-22 12.7 20.4 7.3- 70.3- 1.3 1.7---- 0.0------------
1964-05-23 14.8 22.4 4.7- 55.8- 1.3 2.0---- 0.0------------
1964-05-24 17.3 23.8 6.1- 47.8- 0.0 2.7---- 0.0------------
1964-05-25 18.8 24.0 8.1- 44.5- 0.0 4.7---- 0.0------------
1964-05-26 18.6 23.9 10.0- 45.5- 2.3 4.3---- 0.0------------
1964-05-27 19.6 25.4 8.7- 44.5- 3.3 3.0---- 0.0------------
1964-05-28 17.2 25.6 10.7- 76.5- 6.7 1.7---- 5.2------------
1964-05-29 17.1 24.0 11.6- 76.0- 0.7 1.0---- 0.0------------
1964-05-30 18.3 25.1 8.0- 69.0- 1.7 1.0---- 1.8------------
1964-05-31 15.1 21.0 10.9- 82.0- 3.0 1.3---- 8.9------------
1964-06-01 19.3 28.7 9.1- 77.8- 3.7 1.7---- 3.8------------
1964-06-02 19.0 29.6 13.3- 79.8- 4.7 1.7---- 1.0------------
1964-06-03 20.0 26.1 13.5- 59.5- 3.7 2.3---- 0.0------------
1964-06-04 17.2 23.8 12.1- 66.5- 1.3 1.3---- 0.0------------
1964-06-05 22.5 29.3 9.1- 54.0- 0.7 1.7---- 0.0------------
1964-06-06 17.2 22.9 15.2- 85.5- 5.7 2.3---- 1.2------------
1964-06-07 21.0 26.8 9.4- 53.0- 2.3 2.0---- 3.0------------
1964-06-08 17.2 21.8 15.8- 65.8- 6.7 3.3---- 0.2------------
1964-06-09 15.3 20.7 12.0- 68.5- 3.3 2.0---- 0.0------------
1964-06-10 18.2 24.6 6.5- 59.3- 2.3 1.0---- 0.0------------
1964-06-11 20.5 29.3 11.0- 58.3- 2.0 2.0---- 0.0------------
1964-06-12 21.4 29.4 10.9- 64.8- 3.7 0.7---- 0.0------------
1964-06-13 24.4 32.9 12.3- 47.3- 1.0 1.3---- 0.0------------
239.9 ms

 

Źródłem pochodzenia danych jest Instytut Meteorologii i Gospodarki Wodnej – Państwowy Instytut Badawczy. Dane Instytutu Meteorologii i Gospodarki Wodnej – Państwowego Instytutu Badawczego zostały przetworzone.

Dane źródłowe można odnaleźć na stronie https://dane.imgw.pl